Time;durP1;ratioP1;P1;durP2;ratioP2;P2;SDS_P1;SDS_P2;PMS_P1;PMS_P2;Temp;Humidity;BMP_temperature;BMP_pressure;BME280_temperature;BME280_humidity;BME280_pressure;Samples;Min_cycle;Max_cycle;Signal;HPM_P1;HPM_P2
2022/03/14 00:01:21;;;;;;;;;2.67;2.00;;;;;;;;5079446;27;45290;-77
2022/03/14 00:03:58;;;;;;;;;5.33;5.33;;;;;;;;5077601;28;46010;-77
2022/03/14 00:06:24;;;;;;;;;6.33;6.33;;;;;;;;5079197;28;45428;-77
2022/03/14 00:08:50;;;;;;;;;6.00;5.67;;;;;;;;5077553;28;45692;-77
2022/03/14 00:11:17;;;;;;;;;6.67;6.00;;;;;;;;5077872;28;45597;-78
2022/03/14 00:13:43;;;;;;;;;5.00;4.33;;;;;;;;5078801;27;45458;-77
2022/03/14 00:16:09;;;;;;;;;6.00;5.00;;;;;;;;5065490;27;45184;-77
2022/03/14 00:18:34;;;;;;;;;5.00;5.00;;;;;;;;5058571;28;45363;-77
2022/03/14 00:21:00;;;;;;;;;5.67;5.67;;;;;;;;5059111;28;45231;-77
2022/03/14 00:23:26;;;;;;;;;5.33;5.33;;;;;;;;5061996;28;45543;-77
2022/03/14 00:25:52;;;;;;;;;6.67;6.00;;;;;;;;5062087;28;46455;-77
2022/03/14 00:28:17;;;;;;;;;7.33;6.33;;;;;;;;5062336;28;45445;-77
2022/03/14 00:30:43;;;;;;;;;6.00;5.33;;;;;;;;5062608;28;45452;-78
2022/03/14 00:33:08;;;;;;;;;6.67;5.00;;;;;;;;5061081;28;45319;-77
2022/03/14 00:35:33;;;;;;;;;6.00;5.33;;;;;;;;5062181;28;45712;-77
2022/03/14 00:37:59;;;;;;;;;8.00;7.00;;;;;;;;5061991;28;45467;-77
2022/03/14 00:40:24;;;;;;;;;4.00;4.00;;;;;;;;5061036;28;45354;-76
2022/03/14 00:42:49;;;;;;;;;6.00;5.00;;;;;;;;5062147;28;45344;-77
2022/03/14 00:45:14;;;;;;;;;6.33;6.00;;;;;;;;5060527;28;48452;-77
2022/03/14 00:47:40;;;;;;;;;5.00;5.00;;;;;;;;5060718;28;45429;-77
2022/03/14 00:50:05;;;;;;;;;7.00;6.00;;;;;;;;5061933;28;45337;-77
2022/03/14 00:52:30;;;;;;;;;6.67;6.67;;;;;;;;5061936;28;45822;-77
2022/03/14 00:54:56;;;;;;;;;6.00;6.00;;;;;;;;5062129;28;45333;-77
2022/03/14 00:57:21;;;;;;;;;5.00;5.00;;;;;;;;5061720;28;45300;-77
2022/03/14 00:59:46;;;;;;;;;8.00;5.00;;;;;;;;5060496;28;45339;-77
2022/03/14 01:02:12;;;;;;;;;1.00;1.00;;;;;;;;5061936;28;45316;-76
2022/03/14 01:04:37;;;;;;;;;6.00;5.00;;;;;;;;5061618;28;45391;-77
2022/03/14 01:07:03;;;;;;;;;6.00;5.67;;;;;;;;5061766;28;45255;-77
2022/03/14 01:09:29;;;;;;;;;7.00;5.33;;;;;;;;5060203;28;45196;-77
2022/03/14 01:11:54;;;;;;;;;5.67;5.33;;;;;;;;5061727;28;45362;-77
2022/03/14 01:14:20;;;;;;;;;5.33;5.00;;;;;;;;5061790;28;46246;-77
2022/03/14 01:16:45;;;;;;;;;6.67;6.00;;;;;;;;5079600;28;45318;-77
2022/03/14 01:19:11;;;;;;;;;5.33;4.67;;;;;;;;5081756;28;45405;-77
2022/03/14 01:21:38;;;;;;;;;6.33;6.00;;;;;;;;5081809;28;45987;-77
2022/03/14 01:24:03;;;;;;;;;7.00;5.00;;;;;;;;5080183;28;47328;-77
2022/03/14 01:26:28;;;;;;;;;6.00;6.00;;;;;;;;5080113;28;45421;-77
2022/03/14 01:28:53;;;;;;;;;5.67;5.33;;;;;;;;5081899;28;45379;-77
2022/03/14 01:31:19;;;;;;;;;9.00;8.00;;;;;;;;5081914;28;46016;-77
2022/03/14 01:33:45;;;;;;;;;5.00;5.00;;;;;;;;5080437;28;46248;-77
2022/03/14 01:36:11;;;;;;;;;6.00;5.00;;;;;;;;5081391;28;45323;-77
2022/03/14 01:38:36;;;;;;;;;4.00;4.00;;;;;;;;5081723;28;45345;-77
2022/03/14 01:41:01;;;;;;;;;7.00;6.00;;;;;;;;5080070;28;46136;-78
2022/03/14 01:43:26;;;;;;;;;6.00;5.00;;;;;;;;5081449;28;45532;-77
2022/03/14 01:45:56;;;;;;;;;8.67;7.00;;;;;;;;5081609;28;45458;-77
2022/03/14 01:48:21;;;;;;;;;5.33;5.33;;;;;;;;5081223;27;45344;-77
2022/03/14 01:50:47;;;;;;;;;6.00;5.00;;;;;;;;5081085;28;45274;-77
2022/03/14 01:53:12;;;;;;;;;7.67;6.67;;;;;;;;5081066;28;45429;-77
2022/03/14 01:55:38;;;;;;;;;5.33;5.33;;;;;;;;5081167;27;45404;-77
2022/03/14 01:58:03;;;;;;;;;8.00;8.00;;;;;;;;5081504;28;45574;-77
2022/03/14 02:00:29;;;;;;;;;4.67;4.67;;;;;;;;5081447;27;45320;-77
2022/03/14 02:02:54;;;;;;;;;6.00;6.00;;;;;;;;5080966;28;46454;-78
2022/03/14 02:05:20;;;;;;;;;8.67;7.67;;;;;;;;5079563;28;45478;-77
2022/03/14 02:07:45;;;;;;;;;5.67;5.67;;;;;;;;5080719;27;45282;-77
2022/03/14 02:10:10;;;;;;;;;7.00;5.67;;;;;;;;5080970;27;45320;-77
2022/03/14 02:12:36;;;;;;;;;7.00;6.33;;;;;;;;5080996;28;46024;-77
2022/03/14 02:15:01;;;;;;;;;4.67;4.67;;;;;;;;5076730;28;45429;-77
2022/03/14 02:17:26;;;;;;;;;6.00;6.00;;;;;;;;5060709;28;45294;-77
2022/03/14 02:19:52;;;;;;;;;6.00;6.00;;;;;;;;5060417;28;45427;-77
2022/03/14 02:22:18;;;;;;;;;6.00;6.00;;;;;;;;5060632;28;46133;-77
2022/03/14 02:24:44;;;;;;;;;6.00;5.33;;;;;;;;5058951;28;45343;-77
2022/03/14 02:27:11;;;;;;;;;4.00;4.00;;;;;;;;5059185;28;45515;-77
2022/03/14 02:29:37;;;;;;;;;6.67;6.67;;;;;;;;5060514;28;45499;-78
2022/03/14 02:32:02;;;;;;;;;6.00;6.00;;;;;;;;5058889;28;47453;-77
2022/03/14 02:34:27;;;;;;;;;6.00;6.00;;;;;;;;5058890;28;45899;-77
2022/03/14 02:36:53;;;;;;;;;4.33;4.33;;;;;;;;5060149;28;45415;-77
2022/03/14 02:39:18;;;;;;;;;4.67;4.67;;;;;;;;5060207;28;45469;-77
2022/03/14 02:41:43;;;;;;;;;4.67;3.67;;;;;;;;5060311;28;46202;-77
2022/03/14 02:44:09;;;;;;;;;4.67;4.67;;;;;;;;5059823;28;45390;-77
2022/03/14 02:46:35;;;;;;;;;6.00;5.00;;;;;;;;5058886;28;45284;-78
2022/03/14 02:49:01;;;;;;;;;4.67;4.67;;;;;;;;5059932;28;45436;-77
2022/03/14 02:51:26;;;;;;;;;4.67;4.67;;;;;;;;5059959;28;46334;-78
2022/03/14 02:53:52;;;;;;;;;7.00;5.00;;;;;;;;5059884;28;45355;-77
2022/03/14 02:56:20;;;;;;;;;3.00;3.00;;;;;;;;5058747;28;45260;-77
2022/03/14 02:58:46;;;;;;;;;3.33;3.00;;;;;;;;5059818;28;45614;-78
2022/03/14 03:01:14;;;;;;;;;3.00;3.00;;;;;;;;5059774;28;45565;-77
2022/03/14 03:03:39;;;;;;;;;2.33;2.33;;;;;;;;5059618;28;45366;-77
2022/03/14 03:06:05;;;;;;;;;3.67;3.00;;;;;;;;5060085;28;45370;-77
2022/03/14 03:08:31;;;;;;;;;6.00;4.33;;;;;;;;5058441;28;46165;-77
2022/03/14 03:10:59;;;;;;;;;4.00;4.00;;;;;;;;5059640;28;45294;-77
2022/03/14 03:13:27;;;;;;;;;5.00;4.67;;;;;;;;5059842;28;45228;-77
2022/03/14 03:15:53;;;;;;;;;6.00;4.33;;;;;;;;5070309;28;45401;-77
2022/03/14 03:18:18;;;;;;;;;4.33;3.67;;;;;;;;5079581;27;45341;-78
2022/03/14 03:20:43;;;;;;;;;4.00;4.00;;;;;;;;5079772;28;45421;-77
2022/03/14 03:23:09;;;;;;;;;4.33;3.67;;;;;;;;5079690;28;45518;-77
2022/03/14 03:25:34;;;;;;;;;6.00;4.00;;;;;;;;5078723;28;45377;-77
2022/03/14 03:27:59;;;;;;;;;6.33;4.00;;;;;;;;5079809;28;45532;-77
2022/03/14 03:30:24;;;;;;;;;5.00;4.33;;;;;;;;5079769;28;46367;-77
2022/03/14 03:32:50;;;;;;;;;6.00;4.00;;;;;;;;5079776;28;45319;-77
2022/03/14 03:35:15;;;;;;;;;5.67;4.67;;;;;;;;5077984;28;45304;-77
2022/03/14 03:37:40;;;;;;;;;9.67;6.33;;;;;;;;5079018;28;45822;-77
2022/03/14 03:40:06;;;;;;;;;6.00;5.00;;;;;;;;5079584;28;46127;-77
2022/03/14 03:42:31;;;;;;;;;3.00;3.00;;;;;;;;5078116;28;45268;-77
2022/03/14 03:44:56;;;;;;;;;4.00;4.00;;;;;;;;5079704;28;45390;-77
2022/03/14 03:47:22;;;;;;;;;4.33;4.00;;;;;;;;5079565;28;45336;-77
2022/03/14 03:49:47;;;;;;;;;5.00;4.00;;;;;;;;5079412;27;46183;-78
2022/03/14 03:52:12;;;;;;;;;5.00;4.00;;;;;;;;5079526;28;45338;-77
2022/03/14 03:54:38;;;;;;;;;3.67;3.33;;;;;;;;5079857;28;45277;-77
2022/03/14 03:57:03;;;;;;;;;5.00;5.00;;;;;;;;5078557;27;45252;-77
2022/03/14 03:59:29;;;;;;;;;4.67;3.67;;;;;;;;5079358;28;46081;-77
2022/03/14 04:01:55;;;;;;;;;5.00;5.00;;;;;;;;5079440;28;45242;-77
2022/03/14 04:04:20;;;;;;;;;4.67;4.67;;;;;;;;5078238;28;45281;-77
2022/03/14 04:06:48;;;;;;;;;5.67;5.00;;;;;;;;5077462;28;47268;-77
2022/03/14 04:09:14;;;;;;;;;4.00;4.00;;;;;;;;5079270;27;45367;-77
2022/03/14 04:11:41;;;;;;;;;5.33;5.33;;;;;;;;5078911;28;45483;-77
2022/03/14 04:14:07;;;;;;;;;5.00;4.00;;;;;;;;5077753;28;45392;-77
2022/03/14 04:16:33;;;;;;;;;5.00;5.00;;;;;;;;5061779;27;45352;-77
2022/03/14 04:18:58;;;;;;;;;6.33;6.33;;;;;;;;5058321;28;45314;-78
2022/03/14 04:21:23;;;;;;;;;3.00;3.00;;;;;;;;5057272;28;45902;-77
2022/03/14 04:23:49;;;;;;;;;5.00;5.00;;;;;;;;5058951;28;45310;-77
2022/03/14 04:26:14;;;;;;;;;4.00;3.00;;;;;;;;5057435;28;47224;-77
2022/03/14 04:28:41;;;;;;;;;7.00;6.00;;;;;;;;5058854;28;46398;-77
2022/03/14 04:31:07;;;;;;;;;5.00;5.00;;;;;;;;5058859;28;45300;-77
2022/03/14 04:33:32;;;;;;;;;6.00;5.67;;;;;;;;5058835;28;45244;-77
2022/03/14 04:35:58;;;;;;;;;7.33;5.00;;;;;;;;5058451;28;45468;-77
2022/03/14 04:38:27;;;;;;;;;7.33;7.33;;;;;;;;5058622;28;46324;-77
2022/03/14 04:40:53;;;;;;;;;3.67;3.00;;;;;;;;5058656;28;45398;-77
2022/03/14 04:43:21;;;;;;;;;4.67;4.67;;;;;;;;5058727;28;45255;-77
2022/03/14 04:45:46;;;;;;;;;4.67;4.67;;;;;;;;5058544;28;45474;-77
2022/03/14 04:48:12;;;;;;;;;8.00;5.00;;;;;;;;5058302;28;45427;-77
2022/03/14 04:50:37;;;;;;;;;4.00;4.00;;;;;;;;5058153;28;45328;-77
2022/03/14 04:53:03;;;;;;;;;6.00;5.00;;;;;;;;5056977;28;45335;-77
2022/03/14 04:55:28;;;;;;;;;6.00;5.00;;;;;;;;5058032;28;45370;-77
2022/03/14 04:57:54;;;;;;;;;4.67;4.67;;;;;;;;5058448;28;45373;-77
2022/03/14 05:00:19;;;;;;;;;7.33;5.67;;;;;;;;5058395;28;45403;-77
2022/03/14 05:02:44;;;;;;;;;5.00;4.00;;;;;;;;5058451;28;45393;-77
2022/03/14 05:05:13;;;;;;;;;4.67;4.67;;;;;;;;5058133;28;45427;-77
2022/03/14 05:07:39;;;;;;;;;5.00;4.67;;;;;;;;5058341;28;45314;-77
2022/03/14 05:10:06;;;;;;;;;5.00;5.00;;;;;;;;5059712;28;45370;-77
2022/03/14 05:12:34;;;;;;;;;5.00;4.67;;;;;;;;5061413;28;45337;-77
2022/03/14 05:15:00;;;;;;;;;4.67;4.67;;;;;;;;5056210;28;46287;-77
2022/03/14 05:17:26;;;;;;;;;4.67;4.67;;;;;;;;5041338;28;45906;-77
2022/03/14 05:19:51;;;;;;;;;7.33;4.00;;;;;;;;5041255;28;45281;-77
2022/03/14 05:22:17;;;;;;;;;5.33;4.00;;;;;;;;5039842;28;45316;-77
2022/03/14 05:24:43;;;;;;;;;5.67;4.00;;;;;;;;5039848;28;46378;-77
2022/03/14 05:27:08;;;;;;;;;3.33;3.00;;;;;;;;5040910;28;46260;-77
2022/03/14 05:29:34;;;;;;;;;6.00;4.67;;;;;;;;5039938;28;45887;-77
2022/03/14 05:31:59;;;;;;;;;4.00;4.00;;;;;;;;5041328;28;45267;-77
2022/03/14 05:34:24;;;;;;;;;5.67;4.67;;;;;;;;5041159;28;45299;-77
2022/03/14 05:36:50;;;;;;;;;5.67;5.00;;;;;;;;5040881;28;46356;-77
2022/03/14 05:39:15;;;;;;;;;4.67;3.00;;;;;;;;5041034;28;45221;-77
2022/03/14 05:41:40;;;;;;;;;8.00;6.00;;;;;;;;5041308;28;45224;-77
2022/03/14 05:44:06;;;;;;;;;5.00;4.33;;;;;;;;5041093;28;45228;-77
2022/03/14 05:46:31;;;;;;;;;5.00;4.67;;;;;;;;5040985;28;45966;-77
2022/03/14 05:48:56;;;;;;;;;6.33;5.00;;;;;;;;5040932;28;45184;-77
2022/03/14 05:51:21;;;;;;;;;5.00;4.33;;;;;;;;5040929;28;45405;-77
2022/03/14 05:53:46;;;;;;;;;6.67;4.00;;;;;;;;5039770;28;46239;-77
2022/03/14 05:56:12;;;;;;;;;4.00;4.00;;;;;;;;5040861;28;45315;-77
2022/03/14 05:58:37;;;;;;;;;6.33;5.00;;;;;;;;5040965;28;45571;-78
2022/03/14 06:01:02;;;;;;;;;5.00;3.67;;;;;;;;5040779;28;45261;-77
2022/03/14 06:03:28;;;;;;;;;5.00;4.00;;;;;;;;5039168;28;46157;-78
2022/03/14 06:05:53;;;;;;;;;7.00;6.00;;;;;;;;5040640;28;46326;-78
2022/03/14 06:08:18;;;;;;;;;5.67;5.00;;;;;;;;5052229;28;45431;-77
2022/03/14 06:10:45;;;;;;;;;11.00;7.67;;;;;;;;5058395;28;45364;-77
2022/03/14 06:13:10;;;;;;;;;5.67;5.00;;;;;;;;5060714;28;45361;-77
2022/03/14 06:15:36;;;;;;;;;5.00;5.00;;;;;;;;5055963;28;45397;-78
2022/03/14 06:18:01;;;;;;;;;5.33;4.00;;;;;;;;5045936;28;45838;-77
2022/03/14 06:20:26;;;;;;;;;4.00;4.00;;;;;;;;5058222;28;45378;-77
2022/03/14 06:22:51;;;;;;;;;5.67;5.00;;;;;;;;5061196;28;45447;-78
2022/03/14 06:25:17;;;;;;;;;3.00;3.00;;;;;;;;5060601;28;45473;-78
2022/03/14 06:27:43;;;;;;;;;4.00;4.00;;;;;;;;5060652;28;45310;-77
2022/03/14 06:30:08;;;;;;;;;5.00;5.00;;;;;;;;5059129;28;45335;-77
2022/03/14 06:32:35;;;;;;;;;7.33;7.33;;;;;;;;5060315;28;45442;-77
2022/03/14 06:35:00;;;;;;;;;5.67;5.67;;;;;;;;5060156;28;45386;-77
2022/03/14 06:37:26;;;;;;;;;6.67;6.33;;;;;;;;5059905;28;45259;-77
2022/03/14 06:39:51;;;;;;;;;8.67;7.67;;;;;;;;5060338;28;45240;-77
2022/03/14 06:42:17;;;;;;;;;6.00;6.00;;;;;;;;5058785;28;47311;-76
2022/03/14 06:44:43;;;;;;;;;11.33;11.00;;;;;;;;5059831;28;46190;-77
2022/03/14 06:47:09;;;;;;;;;8.75;8.75;;;;;;;;5058193;28;45565;-77
2022/03/14 06:49:38;;;;;;;;;7.75;7.75;;;;;;;;5057015;28;45425;-77
2022/03/14 06:52:04;;;;;;;;;8.00;8.00;;;;;;;;5060124;28;45248;-78
2022/03/14 06:54:29;;;;;;;;;9.67;8.33;;;;;;;;5060061;28;45281;-77
2022/03/14 06:56:54;;;;;;;;;7.67;7.33;;;;;;;;5059823;28;45327;-77
2022/03/14 06:59:19;;;;;;;;;7.67;7.00;;;;;;;;5060252;28;45450;-77
2022/03/14 07:01:45;;;;;;;;;10.00;6.50;;;;;;;;5056374;28;46226;-77
2022/03/14 07:04:10;;;;;;;;;9.00;9.00;;;;;;;;5056876;28;46495;-76
2022/03/14 07:06:35;;;;;;;;;9.50;9.25;;;;;;;;5056391;28;45361;-77
2022/03/14 07:09:00;;;;;;;;;13.00;12.50;;;;;;;;5052375;28;45358;-77
2022/03/14 07:11:26;;;;;;;;;12.67;12.00;;;;;;;;5059115;28;45483;-77
2022/03/14 07:13:51;;;;;;;;;15.33;13.00;;;;;;;;5057665;28;47192;-77
2022/03/14 07:16:16;;;;;;;;;11.33;11.00;;;;;;;;5058280;28;45450;-77
2022/03/14 07:18:41;;;;;;;;;10.33;10.33;;;;;;;;5059809;28;45228;-77
2022/03/14 07:21:07;;;;;;;;;10.67;10.00;;;;;;;;5059619;28;45195;-77
2022/03/14 07:23:32;;;;;;;;;9.67;9.33;;;;;;;;5059670;28;45617;-77
2022/03/14 07:25:57;;;;;;;;;10.00;6.33;;;;;;;;5059629;28;45203;-77
2022/03/14 07:28:22;;;;;;;;;9.67;9.00;;;;;;;;5059824;28;45523;-77
2022/03/14 07:30:48;;;;;;;;;9.00;9.00;;;;;;;;5058814;28;45312;-77
2022/03/14 07:33:13;;;;;;;;;12.67;12.00;;;;;;;;5058926;28;46372;-77
2022/03/14 07:35:39;;;;;;;;;12.00;11.67;;;;;;;;5058071;28;45392;-77
2022/03/14 07:38:04;;;;;;;;;11.00;10.33;;;;;;;;5059416;28;45369;-76
2022/03/14 07:40:30;;;;;;;;;12.67;11.33;;;;;;;;5053727;28;46077;-76
2022/03/14 07:42:58;;;;;;;;;13.67;13.00;;;;;;;;5055744;28;47351;-78
2022/03/14 07:45:24;;;;;;;;;12.33;10.33;;;;;;;;5054233;28;45498;-78
2022/03/14 07:47:49;;;;;;;;;13.33;12.33;;;;;;;;5056827;28;45528;-77
2022/03/14 07:50:16;;;;;;;;;10.00;7.67;;;;;;;;5057667;28;46321;-77
2022/03/14 07:52:42;;;;;;;;;9.00;7.00;;;;;;;;5059175;28;47640;-77
2022/03/14 07:55:08;;;;;;;;;10.67;10.67;;;;;;;;5060755;28;45500;-77
2022/03/14 07:57:34;;;;;;;;;7.33;7.33;;;;;;;;5048128;28;45401;-77
2022/03/14 07:59:59;;;;;;;;;9.33;8.33;;;;;;;;5039443;28;45361;-77
2022/03/14 08:02:24;;;;;;;;;9.33;8.33;;;;;;;;5039630;28;45374;-76
2022/03/14 08:04:49;;;;;;;;;6.67;6.67;;;;;;;;5038525;28;45338;-76
2022/03/14 08:07:15;;;;;;;;;7.00;7.00;;;;;;;;5038178;28;45376;-77
2022/03/14 08:09:40;;;;;;;;;6.67;6.67;;;;;;;;5036565;28;47138;-76
2022/03/14 08:12:05;;;;;;;;;6.00;6.00;;;;;;;;5036962;28;45525;-76
2022/03/14 08:14:31;;;;;;;;;12.00;8.00;;;;;;;;5036702;28;45452;-76
2022/03/14 08:16:57;;;;;;;;;8.00;7.67;;;;;;;;5078479;28;45338;-76
2022/03/14 08:19:22;;;;;;;;;9.33;8.33;;;;;;;;5077133;28;45965;-76
2022/03/14 08:21:47;;;;;;;;;6.67;6.67;;;;;;;;5065715;28;46161;-76
2022/03/14 08:24:13;;;;;;;;;12.00;10.33;;;;;;;;5058225;28;45216;-76
2022/03/14 08:26:38;;;;;;;;;11.33;10.00;;;;;;;;5058585;28;45281;-76
2022/03/14 08:29:04;;;;;;;;;8.00;8.00;;;;;;;;5057182;28;45867;-76
2022/03/14 08:31:31;;;;;;;;;8.33;8.00;;;;;;;;5057987;28;46207;-76
2022/03/14 08:33:56;;;;;;;;;10.00;9.00;;;;;;;;5058147;28;45546;-76
2022/03/14 08:36:21;;;;;;;;;7.00;7.00;;;;;;;;5056205;28;45546;-76
2022/03/14 08:38:47;;;;;;;;;6.00;6.00;;;;;;;;5047123;28;45891;-77
2022/03/14 08:41:15;;;;;;;;;9.67;7.00;;;;;;;;5046155;28;45389;-78
2022/03/14 08:43:41;;;;;;;;;11.00;8.00;;;;;;;;5039475;28;45350;-78
2022/03/14 08:46:06;;;;;;;;;7.00;7.00;;;;;;;;5042257;28;45529;-77
2022/03/14 08:48:31;;;;;;;;;7.33;7.00;;;;;;;;5041583;28;45375;-77
2022/03/14 08:50:57;;;;;;;;;8.33;7.67;;;;;;;;5052727;28;45576;-77
2022/03/14 08:53:22;;;;;;;;;10.67;8.00;;;;;;;;5058279;28;45344;-77
2022/03/14 08:55:47;;;;;;;;;9.67;8.33;;;;;;;;5054614;28;45279;-78
2022/03/14 08:58:12;;;;;;;;;7.00;7.00;;;;;;;;5052130;28;46119;-78
2022/03/14 09:00:38;;;;;;;;;10.67;7.67;;;;;;;;5041253;28;46052;-78
2022/03/14 09:03:04;;;;;;;;;6.00;6.00;;;;;;;;5052811;28;45601;-77
2022/03/14 09:05:29;;;;;;;;;7.33;7.33;;;;;;;;5041713;28;45398;-77
2022/03/14 09:07:54;;;;;;;;;7.33;6.33;;;;;;;;5041375;28;45285;-77
2022/03/14 09:10:19;;;;;;;;;10.00;8.00;;;;;;;;5039933;28;47412;-77
2022/03/14 09:12:45;;;;;;;;;8.00;7.00;;;;;;;;5040205;28;45328;-78
2022/03/14 09:15:11;;;;;;;;;7.67;7.00;;;;;;;;5050911;28;45888;-77
2022/03/14 09:17:46;;;;;;;;;6.33;6.33;;;;;;;;5074790;28;45318;-77
2022/03/14 09:20:13;;;;;;;;;9.33;6.33;;;;;;;;5054569;28;46263;-77
2022/03/14 09:22:43;;;;;;;;;7.00;7.00;;;;;;;;5052430;28;45303;-77
2022/03/14 09:25:09;;;;;;;;;8.33;8.00;;;;;;;;5055623;27;45471;-78
2022/03/14 09:27:34;;;;;;;;;11.00;8.00;;;;;;;;5049373;28;47247;-78
2022/03/14 09:29:59;;;;;;;;;10.00;9.00;;;;;;;;5042718;28;45352;-79
2022/03/14 09:32:25;;;;;;;;;7.67;7.67;;;;;;;;5040604;28;45273;-78
2022/03/14 09:34:51;;;;;;;;;8.33;8.00;;;;;;;;5041004;28;45612;-78
2022/03/14 09:37:16;;;;;;;;;8.00;7.33;;;;;;;;5039254;28;47304;-78
2022/03/14 09:39:41;;;;;;;;;6.67;6.67;;;;;;;;5044412;28;45314;-77
2022/03/14 09:42:10;;;;;;;;;9.00;6.67;;;;;;;;5060982;28;45270;-78
2022/03/14 09:44:35;;;;;;;;;7.00;6.00;;;;;;;;5057756;28;45286;-78
2022/03/14 09:47:04;;;;;;;;;8.00;7.33;;;;;;;;5057411;28;46385;-78
2022/03/14 09:49:31;;;;;;;;;7.33;7.33;;;;;;;;5059573;28;47230;-77
2022/03/14 09:51:58;;;;;;;;;9.00;7.00;;;;;;;;5060986;28;45464;-78
2022/03/14 09:54:23;;;;;;;;;8.00;6.00;;;;;;;;5057639;28;45374;-78
2022/03/14 09:56:48;;;;;;;;;9.00;9.00;;;;;;;;5052521;28;45531;-77
2022/03/14 09:59:13;;;;;;;;;8.00;7.67;;;;;;;;5057982;28;45433;-78
2022/03/14 10:01:40;;;;;;;;;6.00;6.00;;;;;;;;5054315;28;45315;-77
2022/03/14 10:04:05;;;;;;;;;7.67;7.67;;;;;;;;5058291;28;45417;-77
2022/03/14 10:06:30;;;;;;;;;9.00;8.00;;;;;;;;5057249;28;45865;-78
2022/03/14 10:08:56;;;;;;;;;5.67;5.67;;;;;;;;5045120;28;45366;-78
2022/03/14 10:11:23;;;;;;;;;8.00;7.00;;;;;;;;5040612;28;45567;-78
2022/03/14 10:13:49;;;;;;;;;7.33;5.67;;;;;;;;5041492;28;45356;-79
2022/03/14 10:16:14;;;;;;;;;9.00;8.33;;;;;;;;5046612;28;45647;-79
2022/03/14 10:19:13;;;;;;;;;6.67;6.00;;;;;;;;5057545;28;46471;-78
2022/03/14 10:21:39;;;;;;;;;8.00;6.00;;;;;;;;5017813;28;45644;-78
2022/03/14 10:24:05;;;;;;;;;5.00;5.00;;;;;;;;5054901;28;45372;-77
2022/03/14 10:26:31;;;;;;;;;7.00;5.67;;;;;;;;5051090;28;45321;-77
2022/03/14 10:28:57;;;;;;;;;6.33;6.33;;;;;;;;5057078;28;46001;-78
2022/03/14 10:31:55;;;;;;;;;5.00;4.67;;;;;;;;5059313;28;45324;-77
2022/03/14 10:34:20;;;;;;;;;8.33;4.67;;;;;;;;5014230;28;45526;-77
2022/03/14 10:36:46;;;;;;;;;8.67;6.00;;;;;;;;5058131;28;45563;-78
2022/03/14 10:39:20;;;;;;;;;6.00;4.33;;;;;;;;5058750;28;45460;-77
2022/03/14 10:41:47;;;;;;;;;5.33;4.33;;;;;;;;5058138;28;45335;-78
2022/03/14 10:44:22;;;;;;;;;4.00;3.00;;;;;;;;5058289;28;45502;-78
2022/03/14 10:46:47;;;;;;;;;8.33;4.33;;;;;;;;5059396;28;45661;-78
2022/03/14 10:49:12;;;;;;;;;6.00;6.00;;;;;;;;5057122;28;46499;-78
2022/03/14 10:51:50;;;;;;;;;6.00;5.33;;;;;;;;5058226;28;46182;-79
2022/03/14 10:54:16;;;;;;;;;5.33;5.33;;;;;;;;5059743;28;45500;-77
2022/03/14 10:56:41;;;;;;;;;7.33;6.00;;;;;;;;5053969;28;45992;-78
2022/03/14 10:59:07;;;;;;;;;4.67;4.67;;;;;;;;5058211;28;45601;-78
2022/03/14 11:01:32;;;;;;;;;5.00;4.00;;;;;;;;5057849;28;45362;-77
2022/03/14 11:03:58;;;;;;;;;5.67;4.33;;;;;;;;5059566;28;45290;-78
2022/03/14 11:06:23;;;;;;;;;3.00;2.67;;;;;;;;5059910;28;45435;-78
2022/03/14 11:08:48;;;;;;;;;2.00;2.00;;;;;;;;5059725;28;45562;-83
2022/03/14 11:11:14;;;;;;;;;5.00;3.00;;;;;;;;5058655;28;45578;-84
2022/03/14 11:13:47;;;;;;;;;5.67;3.67;;;;;;;;5057226;28;45231;-84
2022/03/14 11:16:12;;;;;;;;;3.00;3.00;;;;;;;;5059756;28;45524;-82
2022/03/14 11:18:38;;;;;;;;;6.67;5.00;;;;;;;;5055809;28;45333;-83
2022/03/14 11:21:04;;;;;;;;;8.33;3.33;;;;;;;;5057865;28;46061;-84
2022/03/14 11:23:30;;;;;;;;;4.33;3.00;;;;;;;;5058598;28;45386;-83
2022/03/14 11:25:57;;;;;;;;;4.00;3.00;;;;;;;;5060399;28;47038;-81
2022/03/14 11:28:24;;;;;;;;;3.67;2.00;;;;;;;;5038402;28;48250;-79
2022/03/14 11:30:56;;;;;;;;;3.67;2.33;;;;;;;;5038361;28;45312;-80
2022/03/14 11:33:22;;;;;;;;;2.33;2.00;;;;;;;;5047111;28;45413;-78
2022/03/14 11:35:47;;;;;;;;;3.00;3.00;;;;;;;;5054786;28;45294;-79
2022/03/14 11:38:13;;;;;;;;;4.67;2.67;;;;;;;;5066353;28;47290;-79
2022/03/14 11:40:38;;;;;;;;;5.00;5.00;;;;;;;;5057860;28;45339;-84
2022/03/14 11:43:04;;;;;;;;;4.33;2.33;;;;;;;;5060232;28;45340;-80
2022/03/14 11:45:30;;;;;;;;;5.33;3.33;;;;;;;;5058111;28;45345;-80
2022/03/14 11:47:56;;;;;;;;;3.00;3.00;;;;;;;;5058208;28;45493;-80
2022/03/14 11:50:22;;;;;;;;;4.00;4.00;;;;;;;;5060633;28;45358;-82
2022/03/14 11:52:50;;;;;;;;;5.00;3.00;;;;;;;;5060108;28;45283;-80
2022/03/14 11:55:17;;;;;;;;;3.33;3.33;;;;;;;;5060200;28;45322;-79
2022/03/14 11:57:43;;;;;;;;;5.00;4.00;;;;;;;;5059296;28;45345;-80
2022/03/14 12:00:21;;;;;;;;;6.67;2.00;;;;;;;;5064084;28;45292;-81
2022/03/14 12:02:47;;;;;;;;;1.67;1.33;;;;;;;;5066294;28;45315;-81
2022/03/14 12:05:12;;;;;;;;;1.00;1.00;;;;;;;;5064258;28;46161;-80
2022/03/14 12:07:37;;;;;;;;;3.67;3.00;;;;;;;;5071420;28;46418;-80
2022/03/14 12:10:21;;;;;;;;;3.00;3.00;;;;;;;;5068494;28;45283;-81
2022/03/14 12:12:56;;;;;;;;;2.33;2.00;;;;;;;;5072694;28;45502;-82
2022/03/14 12:15:41;;;;;;;;;6.33;4.67;;;;;;;;5079013;28;45329;-82
2022/03/14 12:18:25;;;;;;;;;5.00;3.67;;;;;;;;5074505;27;45464;-85
2022/03/14 12:21:02;;;;;;;;;4.33;3.67;;;;;;;;5065365;28;45353;-81
2022/03/14 12:23:29;;;;;;;;;6.00;4.00;;;;;;;;5063150;28;45467;-81
2022/03/14 12:26:01;;;;;;;;;4.33;3.00;;;;;;;;5062959;28;47135;-80
2022/03/14 12:28:26;;;;;;;;;4.33;2.33;;;;;;;;5063927;28;46508;-80
2022/03/14 12:30:57;;;;;;;;;3.00;3.00;;;;;;;;5062936;28;45331;-80
2022/03/14 12:33:32;;;;;;;;;3.00;3.00;;;;;;;;5059571;28;45425;-80
2022/03/14 12:35:58;;;;;;;;;3.67;3.00;;;;;;;;5075228;28;46339;-81
2022/03/14 12:38:23;;;;;;;;;4.00;3.33;;;;;;;;5064873;28;47446;-80
2022/03/14 12:40:49;;;;;;;;;3.00;3.00;;;;;;;;5061826;28;45425;-81
2022/03/14 12:43:21;;;;;;;;;4.00;3.00;;;;;;;;5067920;28;45472;-81
2022/03/14 12:45:48;;;;;;;;;4.00;4.00;;;;;;;;5071572;28;45500;-83
2022/03/14 12:48:13;;;;;;;;;11.33;10.00;;;;;;;;5063204;28;46225;-82
2022/03/14 12:50:41;;;;;;;;;6.67;5.67;;;;;;;;5068868;28;45322;-81
2022/03/14 12:53:06;;;;;;;;;2.33;2.33;;;;;;;;5069489;28;45338;-82
2022/03/14 12:55:32;;;;;;;;;5.00;4.00;;;;;;;;5072020;28;45283;-82
2022/03/14 12:57:58;;;;;;;;;2.33;2.00;;;;;;;;5071836;28;46464;-81
2022/03/14 13:00:23;;;;;;;;;2.00;1.33;;;;;;;;5057179;28;45608;-85
2022/03/14 13:02:49;;;;;;;;;3.67;2.33;;;;;;;;5061085;28;45520;-86
2022/03/14 13:05:18;;;;;;;;;4.33;2.33;;;;;;;;5061356;28;46127;-83
2022/03/14 13:07:43;;;;;;;;;3.00;3.00;;;;;;;;5062904;28;45554;-87
2022/03/14 13:10:08;;;;;;;;;3.67;3.00;;;;;;;;5060990;28;45609;-86
2022/03/14 13:12:34;;;;;;;;;1.00;1.00;;;;;;;;5062635;28;45310;-86
2022/03/14 13:15:02;;;;;;;;;2.33;2.33;;;;;;;;5060770;28;46249;-87
2022/03/14 13:17:27;;;;;;;;;1.00;1.00;;;;;;;;5058266;28;45340;-87
2022/03/14 13:19:53;;;;;;;;;4.00;2.00;;;;;;;;5056666;28;45290;-85
2022/03/14 13:22:20;;;;;;;;;4.67;2.67;;;;;;;;5059646;28;45345;-88
2022/03/14 13:24:45;;;;;;;;;2.00;2.00;;;;;;;;5059115;28;45230;-87
2022/03/14 13:27:11;;;;;;;;;3.00;2.00;;;;;;;;5062685;28;45449;-82
2022/03/14 13:29:40;;;;;;;;;2.00;2.00;;;;;;;;5053411;28;45356;-88
2022/03/14 13:32:12;;;;;;;;;3.00;2.33;;;;;;;;5057128;28;45350;-88
2022/03/14 13:34:37;;;;;;;;;2.00;2.00;;;;;;;;5062374;28;45227;-88
2022/03/14 13:37:03;;;;;;;;;1.00;0.00;;;;;;;;5063254;28;45290;-88
2022/03/14 13:39:28;;;;;;;;;3.33;2.00;;;;;;;;5051362;28;45449;-82
2022/03/14 13:41:55;;;;;;;;;3.67;2.00;;;;;;;;5057734;28;45435;-88
2022/03/14 13:44:21;;;;;;;;;1.33;1.33;;;;;;;;5059109;28;45460;-88
2022/03/14 13:46:54;;;;;;;;;1.00;1.00;;;;;;;;5061785;28;47086;-88
2022/03/14 13:49:21;;;;;;;;;2.33;2.33;;;;;;;;5060148;28;45404;-83
2022/03/14 13:51:59;;;;;;;;;2.33;2.33;;;;;;;;5052211;28;45458;-87
2022/03/14 13:54:37;;;;;;;;;2.00;2.00;;;;;;;;5056113;28;45361;-85
2022/03/14 13:57:05;;;;;;;;;4.00;3.33;;;;;;;;5058164;28;45414;-87
2022/03/14 13:59:31;;;;;;;;;2.00;1.75;;;;;;;;5062144;28;45235;-86
2022/03/14 14:02:07;;;;;;;;;2.50;2.00;;;;;;;;5063706;28;45433;-84
2022/03/14 14:04:34;;;;;;;;;3.00;3.00;;;;;;;;5063272;28;46386;-87
2022/03/14 14:06:59;;;;;;;;;2.00;2.00;;;;;;;;5063266;28;47300;-86
2022/03/14 14:09:38;;;;;;;;;3.00;2.75;;;;;;;;5061831;28;45330;-85
2022/03/14 14:12:19;;;;;;;;;1.75;1.75;;;;;;;;5061300;28;45348;-85
2022/03/14 14:14:50;;;;;;;;;0.75;0.75;;;;;;;;5061188;28;46882;-85
2022/03/14 14:17:17;;;;;;;;;3.00;2.00;;;;;;;;5082078;27;46426;-86
2022/03/14 14:20:00;;;;;;;;;0.25;0.25;;;;;;;;5080462;28;45437;-86
2022/03/14 14:22:48;;;;;;;;;3.50;3.00;;;;;;;;5082173;27;45259;-85
2022/03/14 14:25:14;;;;;;;;;3.00;1.00;;;;;;;;5073089;27;45350;-89
2022/03/14 14:27:52;;;;;;;;;1.25;1.25;;;;;;;;5082261;28;45285;-86
2022/03/14 14:30:28;;;;;;;;;1.25;0.00;;;;;;;;5082209;27;45230;-87
2022/03/14 14:32:54;;;;;;;;;3.25;3.00;;;;;;;;5083847;27;45373;-84
2022/03/14 14:35:19;;;;;;;;;0.00;0.00;;;;;;;;5085138;27;45321;-88
2022/03/14 14:37:45;;;;;;;;;3.00;1.33;;;;;;;;5076572;28;48284;-79